createdAt,value
2022-08-22T00:01:28.961Z,5.07
2022-08-22T00:03:09.034Z,7.03
2022-08-22T00:03:11.846Z,8.10
2022-08-22T00:03:16.333Z,6.63
2022-08-22T00:04:18.063Z,7.25
2022-08-22T00:06:58.570Z,5.65
2022-08-22T00:09:39.187Z,6.80
2022-08-22T00:12:17.527Z,7.40
2022-08-22T00:15:00.048Z,6.03
2022-08-22T00:20:09.766Z,5.63
2022-08-22T00:22:49.889Z,6.10
2022-08-22T00:25:30.570Z,5.53
2022-08-22T00:28:07.178Z,6.38
2022-08-22T00:30:45.027Z,5.78
2022-08-22T00:33:45.925Z,5.97
2022-08-22T00:36:20.423Z,5.20
2022-08-22T00:39:01.425Z,6.10
2022-08-22T00:42:02.142Z,5.30
2022-08-22T00:44:42.778Z,5.15
2022-08-22T00:47:36.572Z,5.85
2022-08-22T00:50:05.682Z,6.28
2022-08-22T00:52:52.202Z,5.88
2022-08-22T00:55:44.677Z,5.30
2022-08-22T00:58:37.063Z,6.20
2022-08-22T01:01:08.903Z,5.65
2022-08-22T01:03:46.045Z,6.07
2022-08-22T01:06:45.247Z,5.90
2022-08-22T01:09:58.122Z,6.22
2022-08-22T01:13:01.741Z,6.93
2022-08-22T01:15:34.980Z,5.93
2022-08-22T01:18:41.566Z,6.60
2022-08-22T01:21:41.975Z,5.95
2022-08-22T01:24:10.122Z,6.75
2022-08-22T01:26:59.844Z,6.85
2022-08-22T01:29:42.089Z,7.00
2022-08-22T01:32:45.690Z,6.18
2022-08-22T01:35:28.257Z,5.97
2022-08-22T01:38:38.150Z,5.32
2022-08-22T01:41:10.426Z,5.10
2022-08-22T01:44:00.401Z,6.22
2022-08-22T01:46:44.033Z,6.20
2022-08-22T01:49:30.383Z,6.20
2022-08-22T01:52:38.347Z,5.53
2022-08-22T01:55:33.033Z,5.22
2022-08-22T01:58:14.905Z,5.95
2022-08-22T02:01:11.564Z,6.45
2022-08-22T02:04:24.223Z,6.82
2022-08-22T02:07:17.665Z,6.57
2022-08-22T02:10:04.233Z,6.70
2022-08-22T02:13:10.674Z,6.75
2022-08-22T02:15:43.995Z,6.25
2022-08-22T02:18:22.704Z,6.53
2022-08-22T02:21:19.463Z,6.45
2022-08-22T02:24:15.069Z,5.57
2022-08-22T02:27:07.692Z,4.78
2022-08-22T02:32:19.990Z,6.43
2022-08-22T02:35:39.237Z,5.13
2022-08-22T02:39:09.199Z,5.53
2022-08-22T02:42:03.073Z,5.43
2022-08-22T02:45:06.305Z,5.95
2022-08-22T02:47:47.925Z,4.30
2022-08-22T02:50:36.708Z,5.17
2022-08-22T02:53:15.040Z,4.22
2022-08-22T02:56:06.248Z,4.80
2022-08-22T02:58:47.883Z,3.38
2022-08-22T03:01:31.122Z,2.90
2022-08-22T03:04:31.386Z,3.05
2022-08-22T03:07:05.894Z,3.08
2022-08-22T03:10:20.610Z,3.60
2022-08-22T03:13:13.176Z,3.92
2022-08-22T03:18:45.519Z,4.25
2022-08-22T03:21:19.401Z,3.75
2022-08-22T03:24:07.019Z,4.72
2022-08-22T03:26:52.963Z,4.13
2022-08-22T03:29:33.637Z,4.05
2022-08-22T03:32:23.090Z,4.30
2022-08-22T03:35:10.205Z,5.32
2022-08-22T03:37:38.449Z,4.60
2022-08-22T03:40:31.664Z,4.53
2022-08-22T03:43:32.350Z,4.90
2022-08-22T03:46:26.786Z,5.18
2022-08-22T03:49:13.297Z,4.65
2022-08-22T03:52:02.219Z,4.75
2022-08-22T03:55:03.691Z,5.43
2022-08-22T03:58:05.732Z,5.10
2022-08-22T04:00:56.060Z,3.65
2022-08-22T04:03:59.643Z,3.50
2022-08-22T04:09:38.379Z,4.10
2022-08-22T04:12:42.142Z,4.30
2022-08-22T04:15:39.570Z,4.93
2022-08-22T04:18:23.804Z,5.72
2022-08-22T04:21:10.221Z,5.65
2022-08-22T04:23:53.782Z,6.07
2022-08-22T04:26:47.952Z,5.80
2022-08-22T04:29:36.393Z,5.20
2022-08-22T04:32:16.339Z,6.05
2022-08-22T04:35:10.205Z,5.55
2022-08-22T04:38:06.119Z,4.93
2022-08-22T04:40:52.684Z,5.82
2022-08-22T04:43:25.216Z,5.45
2022-08-22T04:46:06.851Z,5.25
2022-08-22T04:48:45.499Z,6.30
2022-08-22T04:51:22.724Z,6.85
2022-08-22T04:54:23.091Z,5.68
2022-08-22T04:57:26.163Z,6.07
2022-08-22T05:00:01.945Z,6.78
2022-08-22T05:02:30.188Z,5.80
2022-08-22T05:05:13.682Z,7.65
2022-08-22T05:07:50.503Z,6.38
2022-08-22T05:10:46.222Z,5.95
2022-08-22T05:13:24.262Z,5.00
2022-08-22T05:15:58.837Z,5.72
2022-08-22T05:18:31.720Z,4.57
2022-08-22T05:21:07.607Z,4.50
2022-08-22T05:23:42.033Z,5.10
2022-08-22T05:26:13.995Z,4.57
2022-08-22T05:28:53.654Z,6.13
2022-08-22T05:31:35.133Z,5.35
2022-08-22T05:34:08.491Z,6.30
2022-08-22T05:36:43.964Z,5.70
2022-08-22T05:39:25.347Z,6.28
2022-08-22T05:42:03.414Z,6.18
2022-08-22T05:44:34.860Z,6.70
2022-08-22T05:47:20.283Z,6.17
2022-08-22T05:49:57.507Z,6.75
2022-08-22T05:52:45.863Z,6.97
2022-08-22T05:55:25.817Z,6.90
2022-08-22T05:58:32.614Z,5.82
2022-08-22T06:01:20.196Z,3.83
2022-08-22T06:03:57.484Z,3.65
2022-08-22T06:06:28.894Z,3.25
2022-08-22T06:09:07.750Z,4.20
2022-08-22T06:11:41.679Z,4.88
2022-08-22T06:14:24.801Z,5.35
2022-08-22T06:17:05.928Z,5.38
2022-08-22T06:19:39.257Z,4.47
2022-08-22T06:22:08.257Z,5.38
2022-08-22T06:24:38.497Z,5.43
2022-08-22T06:27:12.383Z,5.90
2022-08-22T06:29:55.040Z,4.78
2022-08-22T06:32:58.892Z,4.93
2022-08-22T06:35:43.867Z,4.28
2022-08-22T06:38:12.465Z,4.97
2022-08-22T06:40:42.134Z,5.38
2022-08-22T06:43:12.967Z,4.18
2022-08-22T06:45:41.999Z,4.72
2022-08-22T06:48:10.121Z,5.95
2022-08-22T06:50:42.287Z,6.68
2022-08-22T06:53:22.393Z,6.30
2022-08-22T06:55:56.291Z,7.35
2022-08-22T06:58:30.984Z,6.60
2022-08-22T07:01:25.002Z,4.97
2022-08-22T07:03:58.336Z,4.65
2022-08-22T07:06:53.418Z,4.88
2022-08-22T07:09:32.271Z,4.43
2022-08-22T07:12:04.050Z,4.65
2022-08-22T07:14:45.690Z,5.28
2022-08-22T07:17:24.816Z,5.68
2022-08-22T07:20:20.627Z,5.72
2022-08-22T07:23:15.156Z,6.78
2022-08-22T07:25:56.133Z,5.65
2022-08-22T07:28:50.925Z,3.30
2022-08-22T07:31:47.466Z,3.22
2022-08-22T07:34:32.366Z,3.72
2022-08-22T07:37:15.393Z,4.90
2022-08-22T07:39:53.821Z,3.42
2022-08-22T07:42:31.429Z,5.03
2022-08-22T07:45:02.723Z,3.33
2022-08-22T07:47:54.053Z,3.92
2022-08-22T07:50:28.818Z,3.13
2022-08-22T07:53:15.633Z,2.75
2022-08-22T07:55:49.452Z,2.38
2022-08-22T07:58:19.972Z,3.15
2022-08-22T08:00:50.423Z,3.13
2022-08-22T08:03:22.435Z,18.05
2022-08-22T08:05:51.285Z,14.02
2022-08-22T08:08:27.116Z,15.93
2022-08-22T08:10:59.471Z,18.83
2022-08-22T08:13:34.623Z,24.13
2022-08-22T08:16:05.672Z,30.60
2022-08-22T08:18:36.520Z,11.13
2022-08-22T08:21:09.144Z,10.38
2022-08-22T08:23:45.686Z,11.20
2022-08-22T08:26:22.028Z,16.77
2022-08-22T08:28:53.707Z,8.57
2022-08-22T08:31:28.429Z,7.65
2022-08-22T08:34:13.263Z,7.53
2022-08-22T08:36:55.493Z,14.30
2022-08-22T08:39:36.135Z,9.75
2022-08-22T08:42:30.479Z,4.05
2022-08-22T08:45:08.400Z,5.32
2022-08-22T08:47:42.847Z,4.38
2022-08-22T08:50:48.204Z,5.07
2022-08-22T08:53:28.610Z,4.25
2022-08-22T08:56:28.523Z,3.92
2022-08-22T08:59:34.031Z,3.30
2022-08-22T09:02:13.807Z,4.75
2022-08-22T09:05:06.785Z,3.10
2022-08-22T09:07:58.914Z,2.67
2022-08-22T09:10:33.486Z,2.63
2022-08-22T09:13:22.873Z,3.30
2022-08-22T09:16:07.896Z,2.97
2022-08-22T09:18:44.470Z,3.05
2022-08-22T09:21:12.915Z,2.58
2022-08-22T09:24:18.506Z,3.10
2022-08-22T09:27:00.821Z,3.55
2022-08-22T09:29:54.630Z,3.05
2022-08-22T09:32:43.668Z,2.78
2022-08-22T09:35:30.289Z,2.58
2022-08-22T09:38:18.419Z,2.17
2022-08-22T09:40:56.096Z,3.05
2022-08-22T09:43:45.183Z,2.60
2022-08-22T09:46:31.999Z,2.90
2022-08-22T09:49:36.918Z,2.92
2022-08-22T09:52:34.654Z,3.85
2022-08-22T09:55:13.495Z,3.30
2022-08-22T09:58:11.262Z,3.05
2022-08-22T10:00:58.021Z,3.35
2022-08-22T10:03:54.477Z,2.95
2022-08-22T10:06:31.457Z,4.15
2022-08-22T10:09:11.176Z,3.30
2022-08-22T10:11:58.285Z,3.17
2022-08-22T10:14:36.266Z,5.18
2022-08-22T10:17:28.809Z,4.13
2022-08-22T10:20:27.691Z,3.58
2022-08-22T10:23:34.607Z,3.35
2022-08-22T10:26:22.966Z,3.05
2022-08-22T10:29:31.753Z,1.85
2022-08-22T10:32:19.095Z,3.80
2022-08-22T10:34:59.703Z,3.00
2022-08-22T10:37:50.298Z,2.45
2022-08-22T10:40:26.598Z,4.78
2022-08-22T10:43:18.882Z,2.50
2022-08-22T10:45:52.634Z,2.28
2022-08-22T10:48:23.597Z,2.90
2022-08-22T10:51:08.765Z,3.90
2022-08-22T10:54:08.944Z,3.20
2022-08-22T10:57:03.592Z,2.35
2022-08-22T11:00:00.047Z,2.72
2022-08-22T11:03:03.454Z,2.38
2022-08-22T11:05:41.394Z,2.60
2022-08-22T11:08:27.056Z,3.67
2022-08-22T11:11:19.189Z,2.30
2022-08-22T11:13:47.834Z,2.13
2022-08-22T11:16:18.256Z,2.35
2022-08-22T11:19:16.564Z,3.53
2022-08-22T11:21:54.911Z,3.47
2022-08-22T11:24:35.700Z,3.28
2022-08-22T11:27:21.944Z,2.22
2022-08-22T11:30:44.004Z,2.20
2022-08-22T11:33:47.463Z,2.40
2022-08-22T11:36:34.450Z,1.73
2022-08-22T11:39:34.549Z,2.63
2022-08-22T11:42:15.578Z,2.10
2022-08-22T11:44:57.809Z,1.70
2022-08-22T11:47:34.683Z,2.25
2022-08-22T11:50:06.953Z,3.05
2022-08-22T11:52:55.566Z,1.80
2022-08-22T11:55:33.292Z,2.42
2022-08-22T11:58:50.626Z,2.85
2022-08-22T12:01:34.201Z,2.30
2022-08-22T12:04:09.820Z,2.60
2022-08-22T12:06:46.975Z,2.38
2022-08-22T12:09:27.535Z,2.67
2022-08-22T12:12:19.678Z,2.25
2022-08-22T12:15:21.491Z,2.70
2022-08-22T12:18:08.072Z,2.00
2022-08-22T12:20:52.240Z,2.47
2022-08-22T12:23:43.170Z,3.75
2022-08-22T12:26:17.707Z,3.03
2022-08-22T12:29:16.811Z,2.90
2022-08-22T12:32:16.038Z,2.15
2022-08-22T12:35:13.433Z,2.75
2022-08-22T12:37:54.204Z,2.17
2022-08-22T12:40:37.260Z,2.50
2022-08-22T12:43:33.878Z,2.20
2022-08-22T12:46:47.244Z,2.58
2022-08-22T12:49:23.971Z,2.35
2022-08-22T12:52:11.218Z,4.15
2022-08-22T12:54:50.870Z,8.13
2022-08-22T12:57:31.923Z,3.53
2022-08-22T13:00:11.655Z,5.17
2022-08-22T13:02:41.944Z,2.15
2022-08-22T13:05:12.980Z,2.13
2022-08-22T13:08:04.331Z,2.22
2022-08-22T13:10:48.028Z,3.30
2022-08-22T13:13:56.138Z,2.83
2022-08-22T13:16:36.532Z,2.65
2022-08-22T13:19:18.437Z,3.45
2022-08-22T13:21:57.785Z,2.67
2022-08-22T13:24:52.477Z,3.15
2022-08-22T13:27:51.373Z,3.30
2022-08-22T13:30:37.571Z,3.00
2022-08-22T13:33:11.304Z,3.80
2022-08-22T13:35:51.945Z,3.58
2022-08-22T13:38:26.228Z,2.70
2022-08-22T13:40:58.359Z,3.65
2022-08-22T13:46:01.854Z,3.40
2022-08-22T13:49:00.827Z,3.38
2022-08-22T13:51:47.680Z,2.75
2022-08-22T13:54:16.014Z,2.45
2022-08-22T13:57:24.743Z,3.47
2022-08-22T14:00:08.016Z,3.38
2022-08-22T14:03:08.023Z,2.58
2022-08-22T14:05:53.251Z,2.47
2022-08-22T14:08:35.266Z,2.90
2022-08-22T14:11:26.850Z,3.53
2022-08-22T14:14:04.285Z,3.23
2022-08-22T14:16:35.726Z,2.45
2022-08-22T14:19:31.652Z,2.92
2022-08-22T14:22:14.535Z,2.78
2022-08-22T14:24:48.557Z,2.95
2022-08-22T14:27:47.131Z,3.15
2022-08-22T14:30:25.099Z,3.35
2022-08-22T14:33:12.484Z,3.30
2022-08-22T14:35:54.430Z,3.30
2022-08-22T14:41:25.346Z,3.28
2022-08-22T14:43:59.633Z,2.83
2022-08-22T14:46:52.018Z,2.70
2022-08-22T14:49:24.930Z,3.92
2022-08-22T14:52:29.476Z,4.03
2022-08-22T14:55:09.374Z,3.22
2022-08-22T14:57:46.658Z,2.60
2022-08-22T15:00:45.468Z,3.55
2022-08-22T15:03:28.645Z,3.80
2022-08-22T15:06:31.904Z,4.13
2022-08-22T15:09:02.058Z,3.00
2022-08-22T15:11:42.203Z,3.28
2022-08-22T15:14:34.168Z,3.90
2022-08-22T15:17:10.178Z,2.75
2022-08-22T15:19:47.635Z,5.15
2022-08-22T15:22:29.057Z,4.90
2022-08-22T15:24:57.327Z,4.03
2022-08-22T15:27:29.440Z,4.10
2022-08-22T15:30:07.744Z,6.75
2022-08-22T15:32:49.369Z,3.88
2022-08-22T15:35:29.835Z,4.70
2022-08-22T15:38:03.528Z,5.38
2022-08-22T15:40:52.857Z,4.90
2022-08-22T15:43:44.818Z,3.67
2022-08-22T15:46:18.182Z,5.63
2022-08-22T15:49:02.793Z,5.45
2022-08-22T15:51:39.691Z,4.72
2022-08-22T15:54:24.436Z,3.13
2022-08-22T15:56:54.174Z,3.53
2022-08-22T15:59:54.480Z,4.57
2022-08-22T16:02:29.640Z,3.35
2022-08-22T16:05:10.578Z,4.40
2022-08-22T16:07:49.860Z,4.90
2022-08-22T16:10:24.580Z,5.00
2022-08-22T16:13:17.696Z,3.20
2022-08-22T16:15:54.142Z,4.05
2022-08-22T16:18:39.945Z,3.22
2022-08-22T16:21:21.856Z,3.95
2022-08-22T16:23:56.329Z,4.82
2022-08-22T16:26:31.155Z,4.40
2022-08-22T16:29:41.853Z,4.75
2022-08-22T16:32:12.629Z,4.95
2022-08-22T16:34:44.283Z,5.40
2022-08-22T16:37:15.526Z,3.92
2022-08-22T16:40:00.119Z,22.30
2022-08-22T16:42:45.782Z,6.55
2022-08-22T16:45:37.018Z,4.35
2022-08-22T16:48:27.114Z,3.67
2022-08-22T16:51:12.687Z,5.43
2022-08-22T16:53:45.806Z,3.85
2022-08-22T16:56:40.205Z,4.45
2022-08-22T16:59:39.287Z,4.07
2022-08-22T17:02:35.620Z,4.82
2022-08-22T17:05:29.427Z,3.65
2022-08-22T17:08:20.369Z,4.47
2022-08-22T17:11:00.208Z,4.28
2022-08-22T17:13:37.578Z,5.45
2022-08-22T17:16:24.014Z,4.90
2022-08-22T17:19:14.181Z,4.25
2022-08-22T17:21:56.815Z,6.03
2022-08-22T17:24:47.502Z,5.68
2022-08-22T17:28:00.119Z,6.05
2022-08-22T17:33:17.971Z,6.30
2022-08-22T17:35:52.238Z,7.72
2022-08-22T17:38:42.351Z,8.18
2022-08-22T17:41:47.983Z,7.95
2022-08-22T17:44:25.989Z,7.68
2022-08-22T17:47:14.495Z,6.38
2022-08-22T17:49:54.463Z,4.45
2022-08-22T17:52:34.536Z,8.05
2022-08-22T17:55:14.897Z,12.73
2022-08-22T17:58:43.190Z,9.48
2022-08-22T18:01:14.705Z,7.65
2022-08-22T18:03:52.416Z,7.65
2022-08-22T18:06:24.753Z,9.27
2022-08-22T18:09:18.732Z,8.18
2022-08-22T18:11:50.560Z,5.82
2022-08-22T18:14:49.521Z,7.28
2022-08-22T18:17:44.435Z,6.80
2022-08-22T18:20:22.482Z,6.07
2022-08-22T18:22:59.263Z,7.43
2022-08-22T18:25:35.072Z,6.47
2022-08-22T18:28:21.564Z,6.28
2022-08-22T18:31:19.333Z,6.50
2022-08-22T18:33:58.948Z,5.35
2022-08-22T18:36:45.979Z,6.38
2022-08-22T18:39:29.039Z,5.57
2022-08-22T18:42:18.137Z,5.97
2022-08-22T18:44:46.352Z,6.68
2022-08-22T18:47:21.237Z,6.57
2022-08-22T18:49:55.072Z,5.60
2022-08-22T18:52:36.329Z,7.53
2022-08-22T18:55:27.254Z,7.43
2022-08-22T18:57:58.676Z,7.45
2022-08-22T19:00:54.868Z,6.05
2022-08-22T19:03:41.830Z,5.00
2022-08-22T19:06:10.131Z,7.43
2022-08-22T19:08:58.565Z,7.00
2022-08-22T19:12:06.208Z,6.90
2022-08-22T19:14:56.034Z,5.10
2022-08-22T19:18:05.843Z,6.68
2022-08-22T19:20:37.287Z,7.13
2022-08-22T19:23:33.315Z,6.82
2022-08-22T19:26:25.267Z,6.30
2022-08-22T19:28:57.596Z,5.60
2022-08-22T19:31:25.713Z,6.00
2022-08-22T19:34:18.140Z,6.75
2022-08-22T19:37:07.093Z,6.70
2022-08-22T19:39:41.150Z,8.27
2022-08-22T19:42:21.556Z,6.13
2022-08-22T19:45:17.977Z,6.93
2022-08-22T19:47:56.391Z,7.57
2022-08-22T19:50:26.770Z,7.07
2022-08-22T19:53:31.441Z,6.80
2022-08-22T19:56:29.101Z,8.38
2022-08-22T19:59:11.650Z,6.35
2022-08-22T20:01:46.578Z,7.70
2022-08-22T20:04:45.334Z,6.38
2022-08-22T20:07:42.977Z,9.10
2022-08-22T20:10:20.125Z,6.03
2022-08-22T20:13:07.841Z,4.70
2022-08-22T20:16:02.051Z,6.85
2022-08-22T20:19:07.966Z,24.85
2022-08-22T20:21:43.382Z,26.23
2022-08-22T20:24:31.142Z,10.85
2022-08-22T20:27:17.854Z,10.82
2022-08-22T20:30:02.047Z,10.55
2022-08-22T20:32:33.710Z,9.50
2022-08-22T20:35:04.926Z,4.30
2022-08-22T20:38:05.298Z,6.53
2022-08-22T20:41:00.605Z,6.28
2022-08-22T20:43:51.918Z,3.97
2022-08-22T20:46:54.889Z,5.68
2022-08-22T20:49:29.095Z,3.47
2022-08-22T20:52:04.225Z,5.28
2022-08-22T20:54:37.273Z,5.70
2022-08-22T20:57:20.126Z,4.97
2022-08-22T20:59:56.420Z,5.05
2022-08-22T21:02:36.200Z,6.90
2022-08-22T21:05:18.799Z,6.03
2022-08-22T21:08:01.315Z,5.25
2022-08-22T21:10:32.269Z,4.85
2022-08-22T21:13:07.759Z,5.07
2022-08-22T21:15:42.341Z,4.10
2022-08-22T21:18:23.691Z,3.15
2022-08-22T21:20:52.443Z,4.10
2022-08-22T21:23:21.196Z,4.47
2022-08-22T21:25:56.568Z,4.93
2022-08-22T21:28:57.172Z,5.05
2022-08-22T21:31:49.802Z,5.50
2022-08-22T21:34:37.351Z,3.33
2022-08-22T21:37:15.121Z,3.53
2022-08-22T21:40:07.428Z,3.65
2022-08-22T21:45:29.128Z,3.97
2022-08-22T21:47:58.493Z,4.18
2022-08-22T21:50:31.519Z,4.90
2022-08-22T21:53:10.171Z,3.65
2022-08-22T21:55:43.164Z,3.10
2022-08-22T21:58:30.986Z,2.88
2022-08-22T22:01:33.393Z,3.15
2022-08-22T22:04:01.686Z,3.15
2022-08-22T22:06:30.386Z,4.05
2022-08-22T22:08:58.665Z,4.03
2022-08-22T22:11:27.041Z,3.47
2022-08-22T22:13:55.637Z,4.28
2022-08-22T22:16:29.397Z,3.75
2022-08-22T22:18:57.737Z,4.25
2022-08-22T22:21:26.349Z,3.80
2022-08-22T22:23:54.653Z,3.28
2022-08-22T22:26:27.593Z,4.45
2022-08-22T22:28:56.319Z,3.88
2022-08-22T22:31:24.608Z,3.40
2022-08-22T22:33:52.691Z,4.28
2022-08-22T22:36:24.198Z,3.70
2022-08-22T22:38:53.782Z,4.20
2022-08-22T22:41:23.973Z,4.60
2022-08-22T22:43:56.090Z,4.65
2022-08-22T22:46:25.684Z,4.03
2022-08-22T22:48:55.295Z,4.10
2022-08-22T22:51:24.356Z,4.07
2022-08-22T22:53:52.646Z,4.78
2022-08-22T22:56:23.830Z,5.13
2022-08-22T22:59:01.018Z,6.10
2022-08-22T23:02:11.484Z,4.30
2022-08-22T23:04:43.300Z,6.88
2022-08-22T23:07:14.020Z,5.43
2022-08-22T23:09:44.758Z,5.00
2022-08-22T23:12:15.080Z,5.40
2022-08-22T23:14:43.681Z,6.65
2022-08-22T23:17:12.355Z,8.45
2022-08-22T23:19:40.652Z,6.88
2022-08-22T23:22:10.214Z,7.82
2022-08-22T23:24:40.338Z,5.65
2022-08-22T23:27:10.187Z,6.30
2022-08-22T23:29:40.567Z,5.18
2022-08-22T23:32:10.584Z,5.57
2022-08-22T23:34:42.495Z,5.93
2022-08-22T23:37:14.863Z,5.88
2022-08-22T23:39:43.372Z,9.30
2022-08-22T23:42:12.566Z,5.53
2022-08-22T23:44:42.457Z,8.73
2022-08-22T23:47:11.497Z,9.73
2022-08-22T23:49:41.035Z,9.90
2022-08-22T23:52:11.073Z,4.65
2022-08-22T23:54:39.462Z,8.55
2022-08-22T23:57:11.852Z,5.38
2022-08-22T23:59:47.912Z,7.00
